sensor_id;sensor_type;location;lat;lon;timestamp;P1;durP1;ratioP1;P2;durP2;ratioP2
20154;SDS011;10238;49.556;10.956;2024-02-14T00:00:02;17.23;;;9.50;;
20154;SDS011;10238;49.556;10.956;2024-02-14T00:02:52;19.83;;;10.30;;
20154;SDS011;10238;49.556;10.956;2024-02-14T00:05:40;17.70;;;9.52;;
20154;SDS011;10238;49.556;10.956;2024-02-14T00:08:27;17.23;;;10.77;;
20154;SDS011;10238;49.556;10.956;2024-02-14T00:11:15;17.50;;;9.88;;
20154;SDS011;10238;49.556;10.956;2024-02-14T00:14:02;15.50;;;9.45;;
20154;SDS011;10238;49.556;10.956;2024-02-14T00:16:50;14.38;;;9.50;;
20154;SDS011;10238;49.556;10.956;2024-02-14T00:19:39;14.68;;;9.35;;
20154;SDS011;10238;49.556;10.956;2024-02-14T00:22:27;17.02;;;8.90;;
20154;SDS011;10238;49.556;10.956;2024-02-14T00:25:14;11.35;;;7.95;;
20154;SDS011;10238;49.556;10.956;2024-02-14T00:28:05;15.63;;;8.13;;
20154;SDS011;10238;49.556;10.956;2024-02-14T00:30:53;13.60;;;8.27;;
20154;SDS011;10238;49.556;10.956;2024-02-14T00:33:40;18.33;;;8.55;;
20154;SDS011;10238;49.556;10.956;2024-02-14T00:36:31;12.82;;;8.35;;
20154;SDS011;10238;49.556;10.956;2024-02-14T00:39:19;14.35;;;7.93;;
20154;SDS011;10238;49.556;10.956;2024-02-14T00:42:06;11.70;;;7.47;;
20154;SDS011;10238;49.556;10.956;2024-02-14T00:44:54;15.65;;;8.13;;
20154;SDS011;10238;49.556;10.956;2024-02-14T00:47:41;11.70;;;7.30;;
20154;SDS011;10238;49.556;10.956;2024-02-14T00:50:29;12.60;;;7.70;;
20154;SDS011;10238;49.556;10.956;2024-02-14T00:53:18;12.07;;;7.05;;
20154;SDS011;10238;49.556;10.956;2024-02-14T00:56:06;11.02;;;7.07;;
20154;SDS011;10238;49.556;10.956;2024-02-14T00:58:54;11.65;;;6.78;;
20154;SDS011;10238;49.556;10.956;2024-02-14T01:01:42;12.55;;;7.35;;
20154;SDS011;10238;49.556;10.956;2024-02-14T01:04:30;16.38;;;7.50;;
20154;SDS011;10238;49.556;10.956;2024-02-14T01:07:17;12.15;;;7.13;;
20154;SDS011;10238;49.556;10.956;2024-02-14T01:10:07;10.40;;;6.65;;
20154;SDS011;10238;49.556;10.956;2024-02-14T01:12:55;9.80;;;6.72;;
20154;SDS011;10238;49.556;10.956;2024-02-14T01:15:42;11.88;;;7.30;;
20154;SDS011;10238;49.556;10.956;2024-02-14T01:18:30;8.48;;;6.35;;
20154;SDS011;10238;49.556;10.956;2024-02-14T01:21:18;10.40;;;7.10;;
20154;SDS011;10238;49.556;10.956;2024-02-14T01:24:05;14.02;;;8.07;;
20154;SDS011;10238;49.556;10.956;2024-02-14T01:26:56;11.45;;;6.88;;
20154;SDS011;10238;49.556;10.956;2024-02-14T01:29:43;14.38;;;7.47;;
20154;SDS011;10238;49.556;10.956;2024-02-14T01:32:31;11.45;;;6.82;;
20154;SDS011;10238;49.556;10.956;2024-02-14T01:35:19;11.60;;;6.95;;
20154;SDS011;10238;49.556;10.956;2024-02-14T01:38:06;11.05;;;6.53;;
20154;SDS011;10238;49.556;10.956;2024-02-14T01:40:54;17.48;;;7.28;;
20154;SDS011;10238;49.556;10.956;2024-02-14T01:43:43;12.57;;;7.72;;
20154;SDS011;10238;49.556;10.956;2024-02-14T01:46:31;15.23;;;8.18;;
20154;SDS011;10238;49.556;10.956;2024-02-14T01:49:18;10.10;;;6.63;;
20154;SDS011;10238;49.556;10.956;2024-02-14T01:52:06;13.57;;;6.53;;
20154;SDS011;10238;49.556;10.956;2024-02-14T01:54:55;11.80;;;6.95;;
20154;SDS011;10238;49.556;10.956;2024-02-14T01:57:42;13.95;;;6.85;;
20154;SDS011;10238;49.556;10.956;2024-02-14T02:00:31;14.90;;;7.30;;
20154;SDS011;10238;49.556;10.956;2024-02-14T02:03:20;13.98;;;7.45;;
20154;SDS011;10238;49.556;10.956;2024-02-14T02:06:09;9.77;;;6.38;;
20154;SDS011;10238;49.556;10.956;2024-02-14T02:08:57;11.63;;;6.93;;
20154;SDS011;10238;49.556;10.956;2024-02-14T02:11:48;10.80;;;6.97;;
20154;SDS011;10238;49.556;10.956;2024-02-14T02:14:36;14.05;;;6.57;;
20154;SDS011;10238;49.556;10.956;2024-02-14T02:17:27;10.80;;;5.90;;
20154;SDS011;10238;49.556;10.956;2024-02-14T02:20:14;10.27;;;6.47;;
20154;SDS011;10238;49.556;10.956;2024-02-14T02:23:05;11.50;;;6.65;;
20154;SDS011;10238;49.556;10.956;2024-02-14T02:25:55;12.32;;;7.10;;
20154;SDS011;10238;49.556;10.956;2024-02-14T02:28:42;13.52;;;7.13;;
20154;SDS011;10238;49.556;10.956;2024-02-14T02:31:30;12.15;;;7.03;;
20154;SDS011;10238;49.556;10.956;2024-02-14T02:34:18;10.13;;;6.68;;
20154;SDS011;10238;49.556;10.956;2024-02-14T02:37:06;12.13;;;6.63;;
20154;SDS011;10238;49.556;10.956;2024-02-14T02:39:56;10.27;;;6.68;;
20154;SDS011;10238;49.556;10.956;2024-02-14T02:42:44;11.85;;;7.18;;
20154;SDS011;10238;49.556;10.956;2024-02-14T02:45:31;12.45;;;7.05;;
20154;SDS011;10238;49.556;10.956;2024-02-14T02:48:19;12.68;;;7.47;;
20154;SDS011;10238;49.556;10.956;2024-02-14T02:51:09;11.98;;;7.10;;
20154;SDS011;10238;49.556;10.956;2024-02-14T02:53:56;8.13;;;6.70;;
20154;SDS011;10238;49.556;10.956;2024-02-14T02:56:45;14.57;;;7.20;;
20154;SDS011;10238;49.556;10.956;2024-02-14T02:59:32;14.23;;;7.05;;
20154;SDS011;10238;49.556;10.956;2024-02-14T03:02:21;11.07;;;6.65;;
20154;SDS011;10238;49.556;10.956;2024-02-14T03:05:08;9.52;;;6.55;;
20154;SDS011;10238;49.556;10.956;2024-02-14T03:08:03;8.98;;;6.20;;
20154;SDS011;10238;49.556;10.956;2024-02-14T03:10:53;10.57;;;5.95;;
20154;SDS011;10238;49.556;10.956;2024-02-14T03:13:41;9.30;;;5.97;;
20154;SDS011;10238;49.556;10.956;2024-02-14T03:16:29;9.63;;;5.75;;
20154;SDS011;10238;49.556;10.956;2024-02-14T03:19:17;13.15;;;6.60;;
20154;SDS011;10238;49.556;10.956;2024-02-14T03:22:07;10.90;;;5.82;;
20154;SDS011;10238;49.556;10.956;2024-02-14T03:24:56;12.13;;;6.70;;
20154;SDS011;10238;49.556;10.956;2024-02-14T03:27:43;11.60;;;6.28;;
20154;SDS011;10238;49.556;10.956;2024-02-14T03:30:34;13.48;;;6.43;;
20154;SDS011;10238;49.556;10.956;2024-02-14T03:33:22;13.02;;;6.70;;
20154;SDS011;10238;49.556;10.956;2024-02-14T03:36:11;11.90;;;6.50;;
20154;SDS011;10238;49.556;10.956;2024-02-14T03:38:58;11.57;;;6.45;;
20154;SDS011;10238;49.556;10.956;2024-02-14T03:41:49;13.70;;;7.35;;
20154;SDS011;10238;49.556;10.956;2024-02-14T03:44:36;13.48;;;6.72;;
20154;SDS011;10238;49.556;10.956;2024-02-14T03:47:26;12.40;;;6.60;;
20154;SDS011;10238;49.556;10.956;2024-02-14T03:50:14;12.32;;;6.47;;
20154;SDS011;10238;49.556;10.956;2024-02-14T03:53:01;12.43;;;6.63;;
20154;SDS011;10238;49.556;10.956;2024-02-14T03:55:49;11.98;;;7.38;;
20154;SDS011;10238;49.556;10.956;2024-02-14T03:58:38;9.73;;;6.45;;
20154;SDS011;10238;49.556;10.956;2024-02-14T04:01:26;10.40;;;6.30;;
20154;SDS011;10238;49.556;10.956;2024-02-14T04:04:16;10.27;;;6.28;;
20154;SDS011;10238;49.556;10.956;2024-02-14T04:07:04;13.02;;;6.15;;
20154;SDS011;10238;49.556;10.956;2024-02-14T04:09:52;10.43;;;6.07;;
20154;SDS011;10238;49.556;10.956;2024-02-14T04:12:39;10.45;;;6.53;;
20154;SDS011;10238;49.556;10.956;2024-02-14T04:15:27;9.55;;;6.22;;
20154;SDS011;10238;49.556;10.956;2024-02-14T04:18:14;9.75;;;6.28;;
20154;SDS011;10238;49.556;10.956;2024-02-14T04:21:07;11.60;;;6.18;;
20154;SDS011;10238;49.556;10.956;2024-02-14T04:23:56;13.82;;;6.80;;
20154;SDS011;10238;49.556;10.956;2024-02-14T04:26:43;8.45;;;5.88;;
20154;SDS011;10238;49.556;10.956;2024-02-14T04:29:30;11.95;;;6.78;;
20154;SDS011;10238;49.556;10.956;2024-02-14T04:32:20;12.00;;;6.10;;
20154;SDS011;10238;49.556;10.956;2024-02-14T04:35:08;9.10;;;5.85;;
20154;SDS011;10238;49.556;10.956;2024-02-14T04:37:57;11.05;;;5.75;;
20154;SDS011;10238;49.556;10.956;2024-02-14T04:40:44;8.98;;;5.47;;
20154;SDS011;10238;49.556;10.956;2024-02-14T04:43:32;12.52;;;6.57;;
20154;SDS011;10238;49.556;10.956;2024-02-14T04:46:20;13.68;;;6.32;;
20154;SDS011;10238;49.556;10.956;2024-02-14T04:49:08;11.73;;;6.30;;
20154;SDS011;10238;49.556;10.956;2024-02-14T04:51:56;12.60;;;6.68;;
20154;SDS011;10238;49.556;10.956;2024-02-14T04:54:46;9.65;;;6.50;;
20154;SDS011;10238;49.556;10.956;2024-02-14T04:57:33;15.75;;;7.10;;
20154;SDS011;10238;49.556;10.956;2024-02-14T05:00:23;12.35;;;7.22;;
20154;SDS011;10238;49.556;10.956;2024-02-14T05:03:10;14.45;;;7.57;;
20154;SDS011;10238;49.556;10.956;2024-02-14T05:05:58;15.10;;;7.07;;
20154;SDS011;10238;49.556;10.956;2024-02-14T05:08:48;12.02;;;6.45;;
20154;SDS011;10238;49.556;10.956;2024-02-14T05:11:38;11.68;;;6.57;;
20154;SDS011;10238;49.556;10.956;2024-02-14T05:14:26;15.10;;;7.30;;
20154;SDS011;10238;49.556;10.956;2024-02-14T05:17:17;12.93;;;6.60;;
20154;SDS011;10238;49.556;10.956;2024-02-14T05:20:05;14.05;;;6.97;;
20154;SDS011;10238;49.556;10.956;2024-02-14T05:22:55;11.82;;;6.63;;
20154;SDS011;10238;49.556;10.956;2024-02-14T05:25:42;10.55;;;6.95;;
20154;SDS011;10238;49.556;10.956;2024-02-14T05:28:32;14.43;;;6.55;;
20154;SDS011;10238;49.556;10.956;2024-02-14T05:31:20;9.43;;;5.95;;
20154;SDS011;10238;49.556;10.956;2024-02-14T05:34:08;11.98;;;5.97;;
20154;SDS011;10238;49.556;10.956;2024-02-14T05:36:56;9.15;;;5.65;;
20154;SDS011;10238;49.556;10.956;2024-02-14T05:39:43;10.63;;;6.30;;
20154;SDS011;10238;49.556;10.956;2024-02-14T05:42:30;9.52;;;6.03;;
20154;SDS011;10238;49.556;10.956;2024-02-14T05:45:21;9.13;;;5.70;;
20154;SDS011;10238;49.556;10.956;2024-02-14T05:48:09;12.75;;;5.95;;
20154;SDS011;10238;49.556;10.956;2024-02-14T05:50:57;10.35;;;5.85;;
20154;SDS011;10238;49.556;10.956;2024-02-14T05:53:45;10.30;;;6.05;;
20154;SDS011;10238;49.556;10.956;2024-02-14T05:56:33;11.43;;;5.97;;
20154;SDS011;10238;49.556;10.956;2024-02-14T05:59:22;11.32;;;5.68;;
20154;SDS011;10238;49.556;10.956;2024-02-14T06:02:13;9.00;;;5.80;;
20154;SDS011;10238;49.556;10.956;2024-02-14T06:05:00;7.70;;;5.22;;
20154;SDS011;10238;49.556;10.956;2024-02-14T06:07:48;10.15;;;5.60;;
20154;SDS011;10238;49.556;10.956;2024-02-14T06:10:36;9.70;;;5.20;;
20154;SDS011;10238;49.556;10.956;2024-02-14T06:13:25;7.03;;;4.80;;
20154;SDS011;10238;49.556;10.956;2024-02-14T06:16:12;6.93;;;4.57;;
20154;SDS011;10238;49.556;10.956;2024-02-14T06:19:01;8.65;;;5.60;;
20154;SDS011;10238;49.556;10.956;2024-02-14T06:21:50;7.28;;;4.63;;
20154;SDS011;10238;49.556;10.956;2024-02-14T06:24:38;8.15;;;4.70;;
20154;SDS011;10238;49.556;10.956;2024-02-14T06:27:26;9.27;;;4.90;;
20154;SDS011;10238;49.556;10.956;2024-02-14T06:30:13;9.00;;;5.68;;
20154;SDS011;10238;49.556;10.956;2024-02-14T06:33:03;9.52;;;5.25;;
20154;SDS011;10238;49.556;10.956;2024-02-14T06:35:52;11.13;;;5.60;;
20154;SDS011;10238;49.556;10.956;2024-02-14T06:38:40;9.32;;;5.80;;
20154;SDS011;10238;49.556;10.956;2024-02-14T06:41:29;10.70;;;5.50;;
20154;SDS011;10238;49.556;10.956;2024-02-14T06:44:17;7.07;;;5.20;;
20154;SDS011;10238;49.556;10.956;2024-02-14T06:47:04;9.57;;;5.38;;
20154;SDS011;10238;49.556;10.956;2024-02-14T06:49:52;7.75;;;5.72;;
20154;SDS011;10238;49.556;10.956;2024-02-14T06:52:41;8.45;;;5.75;;
20154;SDS011;10238;49.556;10.956;2024-02-14T06:55:29;5.63;;;4.90;;
20154;SDS011;10238;49.556;10.956;2024-02-14T06:58:18;11.63;;;6.63;;
20154;SDS011;10238;49.556;10.956;2024-02-14T07:01:05;6.20;;;5.07;;
20154;SDS011;10238;49.556;10.956;2024-02-14T07:03:53;12.25;;;6.32;;
20154;SDS011;10238;49.556;10.956;2024-02-14T07:06:41;9.98;;;5.47;;
20154;SDS011;10238;49.556;10.956;2024-02-14T07:09:30;13.00;;;5.68;;
20154;SDS011;10238;49.556;10.956;2024-02-14T07:12:20;10.20;;;5.53;;
20154;SDS011;10238;49.556;10.956;2024-02-14T07:15:08;10.90;;;5.63;;
20154;SDS011;10238;49.556;10.956;2024-02-14T07:17:57;8.32;;;5.63;;
20154;SDS011;10238;49.556;10.956;2024-02-14T07:20:45;10.70;;;5.63;;
20154;SDS011;10238;49.556;10.956;2024-02-14T07:23:33;9.05;;;5.78;;
20154;SDS011;10238;49.556;10.956;2024-02-14T07:26:21;13.48;;;5.60;;
20154;SDS011;10238;49.556;10.956;2024-02-14T07:29:09;8.52;;;5.60;;
20154;SDS011;10238;49.556;10.956;2024-02-14T07:31:58;13.30;;;6.07;;
20154;SDS011;10238;49.556;10.956;2024-02-14T07:34:49;11.23;;;5.93;;
20154;SDS011;10238;49.556;10.956;2024-02-14T07:37:36;11.00;;;6.18;;
20154;SDS011;10238;49.556;10.956;2024-02-14T07:40:24;11.48;;;5.93;;
20154;SDS011;10238;49.556;10.956;2024-02-14T07:43:14;10.60;;;6.20;;
20154;SDS011;10238;49.556;10.956;2024-02-14T07:46:02;10.88;;;6.03;;
20154;SDS011;10238;49.556;10.956;2024-02-14T07:48:51;11.95;;;5.70;;
20154;SDS011;10238;49.556;10.956;2024-02-14T07:51:39;10.32;;;6.15;;
20154;SDS011;10238;49.556;10.956;2024-02-14T07:54:27;7.30;;;5.03;;
20154;SDS011;10238;49.556;10.956;2024-02-14T07:57:14;8.70;;;5.72;;
20154;SDS011;10238;49.556;10.956;2024-02-14T08:00:03;11.73;;;6.32;;
20154;SDS011;10238;49.556;10.956;2024-02-14T08:02:53;13.98;;;6.18;;
20154;SDS011;10238;49.556;10.956;2024-02-14T08:05:41;9.63;;;6.65;;
20154;SDS011;10238;49.556;10.956;2024-02-14T08:08:28;11.93;;;6.63;;
20154;SDS011;10238;49.556;10.956;2024-02-14T08:11:17;8.93;;;5.75;;
20154;SDS011;10238;49.556;10.956;2024-02-14T08:14:04;11.80;;;6.68;;
20154;SDS011;10238;49.556;10.956;2024-02-14T08:16:53;12.35;;;6.53;;
20154;SDS011;10238;49.556;10.956;2024-02-14T08:19:40;9.23;;;5.60;;
20154;SDS011;10238;49.556;10.956;2024-02-14T08:22:29;9.18;;;5.63;;
20154;SDS011;10238;49.556;10.956;2024-02-14T08:25:17;10.60;;;5.50;;
20154;SDS011;10238;49.556;10.956;2024-02-14T08:28:05;9.50;;;5.47;;
20154;SDS011;10238;49.556;10.956;2024-02-14T08:30:55;12.35;;;5.65;;
20154;SDS011;10238;49.556;10.956;2024-02-14T08:33:44;8.05;;;5.82;;
20154;SDS011;10238;49.556;10.956;2024-02-14T08:36:32;11.77;;;6.20;;
20154;SDS011;10238;49.556;10.956;2024-02-14T08:39:21;11.68;;;6.18;;
20154;SDS011;10238;49.556;10.956;2024-02-14T08:42:08;11.65;;;6.10;;
20154;SDS011;10238;49.556;10.956;2024-02-14T08:44:57;8.98;;;5.82;;
20154;SDS011;10238;49.556;10.956;2024-02-14T08:47:44;14.35;;;5.88;;
20154;SDS011;10238;49.556;10.956;2024-02-14T08:50:33;7.03;;;5.35;;
20154;SDS011;10238;49.556;10.956;2024-02-14T08:53:21;8.32;;;5.30;;
20154;SDS011;10238;49.556;10.956;2024-02-14T08:56:12;7.28;;;5.57;;
20154;SDS011;10238;49.556;10.956;2024-02-14T08:59:01;14.40;;;6.35;;
20154;SDS011;10238;49.556;10.956;2024-02-14T09:01:49;10.07;;;5.88;;
20154;SDS011;10238;49.556;10.956;2024-02-14T09:04:36;10.85;;;5.65;;
20154;SDS011;10238;49.556;10.956;2024-02-14T09:07:25;9.80;;;6.15;;
20154;SDS011;10238;49.556;10.956;2024-02-14T09:10:13;10.57;;;6.40;;
20154;SDS011;10238;49.556;10.956;2024-02-14T09:13:01;9.45;;;5.90;;
20154;SDS011;10238;49.556;10.956;2024-02-14T09:15:50;10.40;;;5.78;;
20154;SDS011;10238;49.556;10.956;2024-02-14T09:18:38;11.50;;;6.22;;
20154;SDS011;10238;49.556;10.956;2024-02-14T09:21:26;10.52;;;5.95;;
20154;SDS011;10238;49.556;10.956;2024-02-14T09:24:16;9.50;;;5.82;;
20154;SDS011;10238;49.556;10.956;2024-02-14T09:27:04;12.57;;;6.32;;
20154;SDS011;10238;49.556;10.956;2024-02-14T09:29:52;9.00;;;5.50;;
20154;SDS011;10238;49.556;10.956;2024-02-14T09:32:39;11.63;;;6.03;;
20154;SDS011;10238;49.556;10.956;2024-02-14T09:35:27;11.30;;;6.10;;
20154;SDS011;10238;49.556;10.956;2024-02-14T09:38:15;11.75;;;6.10;;
20154;SDS011;10238;49.556;10.956;2024-02-14T09:41:05;13.30;;;6.10;;
20154;SDS011;10238;49.556;10.956;2024-02-14T09:44:02;8.27;;;5.90;;
20154;SDS011;10238;49.556;10.956;2024-02-14T09:46:51;7.25;;;5.35;;
20154;SDS011;10238;49.556;10.956;2024-02-14T09:49:40;13.30;;;6.20;;
20154;SDS011;10238;49.556;10.956;2024-02-14T09:52:31;8.68;;;6.07;;
20154;SDS011;10238;49.556;10.956;2024-02-14T09:55:20;8.43;;;5.38;;
20154;SDS011;10238;49.556;10.956;2024-02-14T09:58:13;8.77;;;6.07;;
20154;SDS011;10238;49.556;10.956;2024-02-14T10:01:02;9.88;;;6.60;;
20154;SDS011;10238;49.556;10.956;2024-02-14T10:03:53;8.55;;;6.50;;
20154;SDS011;10238;49.556;10.956;2024-02-14T10:06:41;8.82;;;5.80;;
20154;SDS011;10238;49.556;10.956;2024-02-14T10:09:29;11.68;;;4.65;;
20154;SDS011;10238;49.556;10.956;2024-02-14T10:12:16;6.97;;;4.75;;
20154;SDS011;10238;49.556;10.956;2024-02-14T10:15:06;8.23;;;4.20;;
20154;SDS011;10238;49.556;10.956;2024-02-14T10:17:55;6.30;;;4.47;;
20154;SDS011;10238;49.556;10.956;2024-02-14T10:20:52;7.82;;;4.80;;
20154;SDS011;10238;49.556;10.956;2024-02-14T10:23:41;7.68;;;3.75;;
20154;SDS011;10238;49.556;10.956;2024-02-14T10:26:29;5.45;;;3.17;;
20154;SDS011;10238;49.556;10.956;2024-02-14T10:29:17;5.90;;;3.13;;
20154;SDS011;10238;49.556;10.956;2024-02-14T10:32:08;9.88;;;3.92;;
20154;SDS011;10238;49.556;10.956;2024-02-14T10:34:55;6.20;;;3.13;;
20154;SDS011;10238;49.556;10.956;2024-02-14T10:37:44;7.53;;;3.70;;
20154;SDS011;10238;49.556;10.956;2024-02-14T10:40:36;6.78;;;3.45;;
20154;SDS011;10238;49.556;10.956;2024-02-14T10:43:25;5.95;;;3.05;;
20154;SDS011;10238;49.556;10.956;2024-02-14T10:46:19;6.75;;;3.40;;
20154;SDS011;10238;49.556;10.956;2024-02-14T10:49:12;7.65;;;3.78;;
20154;SDS011;10238;49.556;10.956;2024-02-14T10:52:03;3.92;;;2.80;;
20154;SDS011;10238;49.556;10.956;2024-02-14T10:54:55;6.43;;;3.55;;
20154;SDS011;10238;49.556;10.956;2024-02-14T10:57:44;4.43;;;3.10;;
20154;SDS011;10238;49.556;10.956;2024-02-14T11:00:33;6.90;;;2.83;;
20154;SDS011;10238;49.556;10.956;2024-02-14T11:03:21;4.78;;;2.78;;
20154;SDS011;10238;49.556;10.956;2024-02-14T11:06:14;4.65;;;2.50;;
20154;SDS011;10238;49.556;10.956;2024-02-14T11:09:03;6.55;;;2.47;;
20154;SDS011;10238;49.556;10.956;2024-02-14T11:11:58;6.72;;;2.58;;
20154;SDS011;10238;49.556;10.956;2024-02-14T11:14:48;5.13;;;2.38;;
20154;SDS011;10238;49.556;10.956;2024-02-14T11:17:38;4.07;;;2.60;;
20154;SDS011;10238;49.556;10.956;2024-02-14T11:20:30;3.33;;;2.63;;
20154;SDS011;10238;49.556;10.956;2024-02-14T11:23:22;4.85;;;2.42;;
20154;SDS011;10238;49.556;10.956;2024-02-14T11:26:15;4.13;;;2.05;;
20154;SDS011;10238;49.556;10.956;2024-02-14T11:29:03;3.20;;;2.00;;
20154;SDS011;10238;49.556;10.956;2024-02-14T11:31:57;3.03;;;2.03;;
20154;SDS011;10238;49.556;10.956;2024-02-14T11:34:52;2.38;;;1.83;;
20154;SDS011;10238;49.556;10.956;2024-02-14T11:37:41;4.93;;;1.83;;
20154;SDS011;10238;49.556;10.956;2024-02-14T11:40:30;1.90;;;1.52;;
20154;SDS011;10238;49.556;10.956;2024-02-14T11:43:18;3.20;;;1.60;;
20154;SDS011;10238;49.556;10.956;2024-02-14T11:46:07;3.67;;;1.40;;
20154;SDS011;10238;49.556;10.956;2024-02-14T11:48:55;5.80;;;1.42;;
20154;SDS011;10238;49.556;10.956;2024-02-14T11:51:43;2.50;;;1.45;;
20154;SDS011;10238;49.556;10.956;2024-02-14T11:54:30;2.05;;;1.60;;
20154;SDS011;10238;49.556;10.956;2024-02-14T11:57:20;1.67;;;1.30;;
20154;SDS011;10238;49.556;10.956;2024-02-14T12:00:08;4.47;;;1.70;;
20154;SDS011;10238;49.556;10.956;2024-02-14T12:02:58;2.15;;;1.38;;
20154;SDS011;10238;49.556;10.956;2024-02-14T12:05:47;1.95;;;1.30;;
20154;SDS011;10238;49.556;10.956;2024-02-14T12:08:38;1.50;;;1.30;;
20154;SDS011;10238;49.556;10.956;2024-02-14T12:11:26;2.55;;;1.42;;
20154;SDS011;10238;49.556;10.956;2024-02-14T12:14:15;1.48;;;1.38;;
20154;SDS011;10238;49.556;10.956;2024-02-14T12:17:04;2.25;;;1.40;;
20154;SDS011;10238;49.556;10.956;2024-02-14T12:19:52;2.00;;;1.38;;
20154;SDS011;10238;49.556;10.956;2024-02-14T12:22:41;1.90;;;1.50;;
20154;SDS011;10238;49.556;10.956;2024-02-14T12:25:29;3.67;;;1.50;;
20154;SDS011;10238;49.556;10.956;2024-02-14T12:28:17;3.25;;;1.63;;
20154;SDS011;10238;49.556;10.956;2024-02-14T12:31:07;2.00;;;1.50;;
20154;SDS011;10238;49.556;10.956;2024-02-14T12:33:55;2.67;;;1.60;;
20154;SDS011;10238;49.556;10.956;2024-02-14T12:36:46;1.58;;;1.48;;
20154;SDS011;10238;49.556;10.956;2024-02-14T12:39:34;2.25;;;1.60;;
20154;SDS011;10238;49.556;10.956;2024-02-14T12:42:24;2.40;;;2.03;;
20154;SDS011;10238;49.556;10.956;2024-02-14T12:45:13;1.98;;;1.48;;
20154;SDS011;10238;49.556;10.956;2024-02-14T12:48:04;1.67;;;1.40;;
20154;SDS011;10238;49.556;10.956;2024-02-14T12:50:54;3.85;;;1.65;;
20154;SDS011;10238;49.556;10.956;2024-02-14T12:53:44;1.48;;;1.38;;
20154;SDS011;10238;49.556;10.956;2024-02-14T12:56:32;2.42;;;1.40;;
20154;SDS011;10238;49.556;10.956;2024-02-14T12:59:19;2.53;;;1.58;;
20154;SDS011;10238;49.556;10.956;2024-02-14T13:02:08;1.92;;;1.30;;
20154;SDS011;10238;49.556;10.956;2024-02-14T13:04:57;1.25;;;1.15;;
20154;SDS011;10238;49.556;10.956;2024-02-14T13:07:46;2.97;;;2.00;;
20154;SDS011;10238;49.556;10.956;2024-02-14T13:10:33;3.17;;;1.60;;
20154;SDS011;10238;49.556;10.956;2024-02-14T13:13:20;2.80;;;1.63;;
20154;SDS011;10238;49.556;10.956;2024-02-14T13:16:08;2.42;;;1.35;;
20154;SDS011;10238;49.556;10.956;2024-02-14T13:18:56;6.47;;;1.60;;
20154;SDS011;10238;49.556;10.956;2024-02-14T13:21:45;1.45;;;1.35;;
20154;SDS011;10238;49.556;10.956;2024-02-14T13:24:34;2.78;;;1.50;;
20154;SDS011;10238;49.556;10.956;2024-02-14T13:27:22;4.07;;;1.90;;
20154;SDS011;10238;49.556;10.956;2024-02-14T13:30:11;2.08;;;1.70;;
20154;SDS011;10238;49.556;10.956;2024-02-14T13:32:59;2.22;;;1.48;;
20154;SDS011;10238;49.556;10.956;2024-02-14T13:35:48;1.63;;;1.38;;
20154;SDS011;10238;49.556;10.956;2024-02-14T13:38:37;2.45;;;1.70;;
20154;SDS011;10238;49.556;10.956;2024-02-14T13:41:25;2.83;;;1.60;;
20154;SDS011;10238;49.556;10.956;2024-02-14T13:44:12;2.25;;;1.50;;
20154;SDS011;10238;49.556;10.956;2024-02-14T13:47:00;3.38;;;1.58;;
20154;SDS011;10238;49.556;10.956;2024-02-14T13:49:48;2.80;;;1.70;;
20154;SDS011;10238;49.556;10.956;2024-02-14T13:52:37;3.30;;;1.52;;
20154;SDS011;10238;49.556;10.956;2024-02-14T13:55:26;2.13;;;1.30;;
20154;SDS011;10238;49.556;10.956;2024-02-14T13:58:14;4.70;;;2.10;;
20154;SDS011;10238;49.556;10.956;2024-02-14T14:01:03;3.53;;;1.83;;
20154;SDS011;10238;49.556;10.956;2024-02-14T14:03:52;2.05;;;1.63;;
20154;SDS011;10238;49.556;10.956;2024-02-14T14:06:41;4.78;;;2.15;;
20154;SDS011;10238;49.556;10.956;2024-02-14T14:09:29;2.13;;;1.90;;
20154;SDS011;10238;49.556;10.956;2024-02-14T14:12:19;3.92;;;1.92;;
20154;SDS011;10238;49.556;10.956;2024-02-14T14:15:07;2.83;;;1.90;;
20154;SDS011;10238;49.556;10.956;2024-02-14T14:17:57;2.72;;;1.80;;
20154;SDS011;10238;49.556;10.956;2024-02-14T14:20:44;4.68;;;1.70;;
20154;SDS011;10238;49.556;10.956;2024-02-14T14:23:32;2.50;;;1.77;;
20154;SDS011;10238;49.556;10.956;2024-02-14T14:26:20;2.03;;;1.58;;
20154;SDS011;10238;49.556;10.956;2024-02-14T14:29:09;1.98;;;1.77;;
20154;SDS011;10238;49.556;10.956;2024-02-14T14:31:56;3.47;;;1.55;;
20154;SDS011;10238;49.556;10.956;2024-02-14T14:34:45;2.78;;;1.75;;
20154;SDS011;10238;49.556;10.956;2024-02-14T14:37:33;5.05;;;1.70;;
20154;SDS011;10238;49.556;10.956;2024-02-14T14:40:20;1.92;;;1.58;;
20154;SDS011;10238;49.556;10.956;2024-02-14T14:43:10;5.10;;;1.80;;
20154;SDS011;10238;49.556;10.956;2024-02-14T14:45:59;2.83;;;1.63;;
20154;SDS011;10238;49.556;10.956;2024-02-14T14:48:47;4.10;;;1.58;;
20154;SDS011;10238;49.556;10.956;2024-02-14T14:51:35;3.28;;;2.15;;
20154;SDS011;10238;49.556;10.956;2024-02-14T14:54:23;1.52;;;1.42;;
20154;SDS011;10238;49.556;10.956;2024-02-14T14:57:11;4.93;;;1.70;;
20154;SDS011;10238;49.556;10.956;2024-02-14T15:00:02;2.45;;;1.77;;
20154;SDS011;10238;49.556;10.956;2024-02-14T15:02:53;3.67;;;1.70;;
20154;SDS011;10238;49.556;10.956;2024-02-14T15:05:41;2.25;;;2.03;;
20154;SDS011;10238;49.556;10.956;2024-02-14T15:08:28;3.03;;;1.70;;
20154;SDS011;10238;49.556;10.956;2024-02-14T15:11:16;4.80;;;1.85;;
20154;SDS011;10238;49.556;10.956;2024-02-14T15:14:06;1.85;;;1.67;;
20154;SDS011;10238;49.556;10.956;2024-02-14T15:16:54;2.88;;;2.20;;
20154;SDS011;10238;49.556;10.956;2024-02-14T15:19:42;1.70;;;1.60;;
20154;SDS011;10238;49.556;10.956;2024-02-14T15:22:30;2.28;;;2.05;;
20154;SDS011;10238;49.556;10.956;2024-02-14T15:25:18;2.85;;;2.08;;
20154;SDS011;10238;49.556;10.956;2024-02-14T15:28:06;2.85;;;2.00;;
20154;SDS011;10238;49.556;10.956;2024-02-14T15:30:59;3.65;;;2.08;;
20154;SDS011;10238;49.556;10.956;2024-02-14T15:34:04;4.15;;;2.00;;
20154;SDS011;10238;49.556;10.956;2024-02-14T15:36:54;2.67;;;1.52;;
20154;SDS011;10238;49.556;10.956;2024-02-14T15:39:42;2.47;;;1.65;;
20154;SDS011;10238;49.556;10.956;2024-02-14T15:42:29;5.03;;;1.83;;
20154;SDS011;10238;49.556;10.956;2024-02-14T15:45:17;1.50;;;1.40;;
20154;SDS011;10238;49.556;10.956;2024-02-14T15:48:05;2.88;;;1.73;;
20154;SDS011;10238;49.556;10.956;2024-02-14T15:50:53;4.88;;;1.60;;
20154;SDS011;10238;49.556;10.956;2024-02-14T15:53:44;4.38;;;1.90;;
20154;SDS011;10238;49.556;10.956;2024-02-14T15:56:32;3.15;;;1.85;;
20154;SDS011;10238;49.556;10.956;2024-02-14T15:59:20;3.13;;;1.85;;
20154;SDS011;10238;49.556;10.956;2024-02-14T16:02:07;3.55;;;2.05;;
20154;SDS011;10238;49.556;10.956;2024-02-14T16:04:55;5.35;;;3.92;;
20154;SDS011;10238;49.556;10.956;2024-02-14T16:07:43;5.43;;;3.17;;
20154;SDS011;10238;49.556;10.956;2024-02-14T16:10:31;2.97;;;2.78;;
20154;SDS011;10238;49.556;10.956;2024-02-14T16:13:20;3.10;;;2.80;;
20154;SDS011;10238;49.556;10.956;2024-02-14T16:16:08;2.78;;;2.50;;
20154;SDS011;10238;49.556;10.956;2024-02-14T16:18:55;3.95;;;2.95;;
20154;SDS011;10238;49.556;10.956;2024-02-14T16:21:45;3.55;;;2.65;;
20154;SDS011;10238;49.556;10.956;2024-02-14T16:24:43;3.47;;;2.40;;
20154;SDS011;10238;49.556;10.956;2024-02-14T16:27:34;2.65;;;2.35;;
20154;SDS011;10238;49.556;10.956;2024-02-14T16:30:23;8.73;;;6.05;;
20154;SDS011;10238;49.556;10.956;2024-02-14T16:33:10;12.60;;;9.60;;